Time;durP1;ratioP1;P1;durP2;ratioP2;P2;SDS_P1;SDS_P2;PMS_P1;PMS_P2;Temp;Humidity;BMP_temperature;BMP_pressure;BME280_temperature;BME280_humidity;BME280_pressure;Samples;Min_cycle;Max_cycle;Signal;HPM_P1;HPM_P2
2021/10/07 00:00:14;;;;;;;;;16.00;14.00;;;;;15.15;62.89;101459.38;146602;563;47907;-74
2021/10/07 00:02:48;;;;;;;;;12.25;11.75;;;;;15.13;62.94;101450.56;146606;703;46021;-75
2021/10/07 00:05:22;;;;;;;;;13.25;12.75;;;;;15.08;62.85;101444.22;146603;613;46016;-76
2021/10/07 00:07:56;;;;;;;;;14.75;14.00;;;;;15.08;62.65;101453.00;146604;573;47008;-84
2021/10/07 00:10:31;;;;;;;;;14.75;13.50;;;;;15.10;63.05;101445.22;146603;576;46017;-78
2021/10/07 00:13:05;;;;;;;;;14.25;13.75;;;;;15.12;62.98;101446.19;146603;563;46020;-79
2021/10/07 00:15:39;;;;;;;;;14.75;13.00;;;;;15.12;63.06;101443.56;146604;579;47908;-75
2021/10/07 00:18:13;;;;;;;;;12.75;11.75;;;;;15.16;62.67;101438.53;146605;576;46910;-76
2021/10/07 00:20:47;;;;;;;;;14.25;13.25;;;;;15.19;63.18;101427.31;146603;565;47010;-77
2021/10/07 00:23:25;;;;;;;;;13.50;12.50;;;;;15.20;63.57;101429.09;146603;636;46020;-77
2021/10/07 00:25:59;;;;;;;;;13.00;11.75;;;;;15.23;63.00;101427.53;146603;578;46016;-77
2021/10/07 00:28:33;;;;;;;;;13.25;13.25;;;;;15.28;63.23;101425.12;146606;592;46010;-77
2021/10/07 00:31:14;;;;;;;;;16.25;13.50;;;;;15.29;62.61;101421.66;146602;570;46010;-77
2021/10/07 00:34:09;;;;;;;;;14.25;12.50;;;;;15.33;62.54;101423.59;146608;629;46008;-73
2021/10/07 00:37:00;;;;;;;;;18.50;15.00;;;;;15.39;62.74;101426.47;146606;585;46016;-74
2021/10/07 00:39:35;;;;;;;;;14.50;14.50;;;;;15.40;63.63;101422.16;146606;605;46021;-73
2021/10/07 00:42:09;;;;;;;;;17.75;16.00;;;;;15.37;62.47;101422.91;146604;595;46016;-74
2021/10/07 00:44:44;;;;;;;;;15.00;14.50;;;;;15.36;63.04;101415.91;146607;573;45020;-73
2021/10/07 00:47:20;;;;;;;;;14.75;11.25;;;;;15.42;62.42;101413.53;146602;590;46021;-72
2021/10/07 00:49:54;;;;;;;;;15.00;14.50;;;;;15.48;62.38;101392.91;146602;572;46020;-72
2021/10/07 00:52:29;;;;;;;;;14.00;14.00;;;;;15.51;62.61;101384.25;146606;577;46908;-73
2021/10/07 00:55:03;;;;;;;;;14.25;13.75;;;;;15.50;62.53;101374.66;146607;628;46008;-72
2021/10/07 00:57:37;;;;;;;;;17.00;14.75;;;;;15.47;62.02;101357.12;146605;569;46016;-71
2021/10/07 01:00:12;;;;;;;;;13.00;12.25;;;;;15.51;62.09;101363.34;146608;583;46008;-71
2021/10/07 01:02:46;;;;;;;;;15.75;15.50;;;;;15.51;62.22;101360.75;146605;664;46031;-70
2021/10/07 01:05:22;;;;;;;;;16.50;15.25;;;;;15.56;61.87;101361.84;146605;575;46020;-73
2021/10/07 01:07:59;;;;;;;;;17.50;17.00;;;;;15.57;61.32;101339.19;146602;585;47011;-73
2021/10/07 01:10:33;;;;;;;;;16.25;13.75;;;;;15.64;61.03;101329.06;146605;576;46021;-74
2021/10/07 01:13:12;;;;;;;;;15.50;15.50;;;;;15.66;61.03;101332.63;146603;646;46016;-74
2021/10/07 01:15:46;;;;;;;;;15.75;13.50;;;;;15.69;60.81;101337.12;146601;676;46008;-73
2021/10/07 01:18:20;;;;;;;;;17.50;14.75;;;;;15.75;60.94;101336.47;146603;581;46017;-73
2021/10/07 01:20:54;;;;;;;;;15.00;15.00;;;;;15.79;60.87;101336.66;146606;604;46027;-73
2021/10/07 01:23:28;;;;;;;;;17.00;16.25;;;;;15.83;60.55;101327.22;146605;649;46016;-72
2021/10/07 01:26:02;;;;;;;;;18.50;16.25;;;;;15.86;60.97;101322.13;146606;627;46020;-73
2021/10/07 01:28:36;;;;;;;;;16.50;15.00;;;;;15.89;60.78;101325.75;146604;613;47010;-75
2021/10/07 01:31:11;;;;;;;;;16.25;14.75;;;;;15.92;60.47;101325.84;146606;599;46023;-73
2021/10/07 01:33:45;;;;;;;;;18.00;15.50;;;;;15.95;60.75;101332.94;146602;608;47010;-73
2021/10/07 01:36:19;;;;;;;;;18.00;15.25;;;;;15.97;60.76;101330.38;146604;578;46020;-73
2021/10/07 01:38:53;;;;;;;;;15.50;14.00;;;;;15.99;61.00;101323.47;146602;564;46908;-73
2021/10/07 01:41:27;;;;;;;;;18.00;16.50;;;;;16.01;60.90;101332.25;146604;608;47010;-72
2021/10/07 01:44:01;;;;;;;;;17.25;15.25;;;;;15.97;61.13;101341.72;146603;592;46010;-72
2021/10/07 01:46:35;;;;;;;;;18.00;16.00;;;;;15.91;61.10;101346.69;146605;572;46010;-72
2021/10/07 01:49:11;;;;;;;;;14.50;14.00;;;;;15.85;61.70;101342.13;146602;559;46016;-72
2021/10/07 01:51:45;;;;;;;;;18.00;15.00;;;;;15.80;61.81;101342.78;146607;612;47006;-73
2021/10/07 01:54:20;;;;;;;;;14.50;14.50;;;;;15.73;61.87;101341.63;146600;603;47010;-69
2021/10/07 01:56:54;;;;;;;;;15.75;13.25;;;;;15.68;61.76;101341.47;146606;576;46008;-71
2021/10/07 01:59:30;;;;;;;;;10.50;10.50;;;;;15.65;62.12;101338.69;146602;625;47020;-70
2021/10/07 02:02:04;;;;;;;;;16.50;15.50;;;;;15.62;62.43;101332.44;146606;600;46021;-70
2021/10/07 02:04:38;;;;;;;;;16.50;13.75;;;;;15.60;62.85;101328.87;146603;637;46016;-70
2021/10/07 02:07:12;;;;;;;;;17.00;15.00;;;;;15.57;62.02;101326.13;146603;591;46020;-69
2021/10/07 02:09:46;;;;;;;;;17.50;15.50;;;;;15.58;61.93;101323.59;146602;598;46017;-76
2021/10/07 02:12:20;;;;;;;;;17.25;16.25;;;;;15.66;61.53;101324.78;146607;569;46026;-75
2021/10/07 02:14:54;;;;;;;;;16.50;15.25;;;;;15.74;61.58;101319.00;146604;565;46010;-71
2021/10/07 02:17:27;;;;;;;;;17.50;14.25;;;;;15.81;61.77;101321.03;146609;594;46008;-72
2021/10/07 02:20:01;;;;;;;;;19.00;17.00;;;;;15.81;61.69;101319.31;146605;640;46029;-72
2021/10/07 02:22:35;;;;;;;;;18.50;17.25;;;;;15.83;61.40;101316.75;146606;578;46008;-72
2021/10/07 02:25:11;;;;;;;;;15.75;15.00;;;;;15.85;61.46;101315.97;146605;659;46010;-71
2021/10/07 02:27:45;;;;;;;;;17.25;16.00;;;;;15.92;61.02;101309.28;146605;640;46008;-72
2021/10/07 02:30:21;;;;;;;;;19.50;16.75;;;;;15.94;61.42;101299.75;146604;625;46021;-72
2021/10/07 02:32:55;;;;;;;;;16.50;16.00;;;;;15.93;61.03;101290.13;146608;622;46008;-71
2021/10/07 02:35:31;;;;;;;;;16.75;14.75;;;;;15.92;61.27;101285.75;146602;575;46016;-73
2021/10/07 02:38:05;;;;;;;;;17.00;15.00;;;;;15.92;61.10;101284.00;146608;693;46008;-73
2021/10/07 02:40:39;;;;;;;;;18.75;14.75;;;;;15.93;61.30;101288.41;146602;583;46022;-73
2021/10/07 02:43:13;;;;;;;;;17.00;15.50;;;;;15.92;60.84;101284.00;146605;572;46020;-73
2021/10/07 02:45:47;;;;;;;;;15.00;15.00;;;;;15.98;60.60;101285.97;146604;586;47010;-74
2021/10/07 02:48:21;;;;;;;;;15.25;15.25;;;;;16.04;60.69;101278.31;146603;620;46010;-70
2021/10/07 02:51:04;;;;;;;;;21.25;19.25;;;;;16.14;60.64;101279.59;146601;694;46020;-70
2021/10/07 02:53:38;;;;;;;;;15.75;13.75;;;;;16.21;60.75;101280.72;146605;570;46021;-69
2021/10/07 02:56:12;;;;;;;;;16.25;15.25;;;;;16.27;60.68;101273.97;146603;596;46016;-68
2021/10/07 02:58:46;;;;;;;;;20.00;18.25;;;;;16.32;61.09;101280.28;146600;705;46008;-69
2021/10/07 03:01:20;;;;;;;;;22.50;16.00;;;;;16.31;61.38;101288.94;146603;675;47908;-73
2021/10/07 03:03:54;;;;;;;;;17.25;16.00;;;;;16.32;60.74;101289.84;146605;593;47008;-71
2021/10/07 03:06:28;;;;;;;;;17.00;15.00;;;;;16.34;60.91;101290.78;146602;683;46016;-72
2021/10/07 03:09:02;;;;;;;;;20.00;15.00;;;;;16.38;61.68;101298.78;146603;583;47010;-71
2021/10/07 03:11:36;;;;;;;;;16.25;15.00;;;;;16.44;60.78;101289.41;146605;577;45908;-71
2021/10/07 03:14:10;;;;;;;;;18.25;17.00;;;;;16.50;61.40;101289.62;146607;617;46020;-71
2021/10/07 03:16:44;;;;;;;;;20.75;16.25;;;;;16.57;61.13;101300.38;146604;607;46031;-73
2021/10/07 03:19:22;;;;;;;;;14.50;14.50;;;;;16.62;60.53;101290.94;146606;591;46020;-70
2021/10/07 03:21:56;;;;;;;;;20.50;17.50;;;;;16.66;60.56;101297.19;146604;618;46011;-70
2021/10/07 03:24:30;;;;;;;;;16.50;16.50;;;;;16.70;60.33;101298.16;146603;658;46909;-69
2021/10/07 03:27:05;;;;;;;;;20.00;17.25;;;;;16.70;60.24;101291.25;146602;618;46016;-70
2021/10/07 03:29:39;;;;;;;;;17.00;16.25;;;;;16.72;60.40;101299.13;146606;583;46008;-71
2021/10/07 03:32:13;;;;;;;;;18.00;14.75;;;;;16.73;60.58;101303.53;146603;569;46039;-70
2021/10/07 03:34:47;;;;;;;;;16.75;16.25;;;;;16.71;60.86;101308.72;146605;589;47010;-70
2021/10/07 03:37:21;;;;;;;;;14.75;13.25;;;;;16.71;60.48;101311.34;146602;581;46017;-69
2021/10/07 03:39:55;;;;;;;;;19.00;17.00;;;;;16.73;60.64;101316.62;146607;575;46020;-69
2021/10/07 03:42:29;;;;;;;;;15.00;14.75;;;;;16.72;61.11;101313.09;146605;563;46029;-69
2021/10/07 03:45:03;;;;;;;;;16.00;14.00;;;;;16.71;60.64;101311.34;146605;590;46008;-70
2021/10/07 03:47:38;;;;;;;;;16.25;14.75;;;;;16.69;61.07;101310.38;146603;563;46016;-70
2021/10/07 03:50:12;;;;;;;;;20.25;18.25;;;;;16.63;60.94;101313.69;146605;564;46910;-70
2021/10/07 03:52:46;;;;;;;;;16.50;16.50;;;;;16.62;61.54;101308.37;146606;600;45027;-71
2021/10/07 03:55:20;;;;;;;;;19.75;18.25;;;;;16.58;61.31;101301.28;146606;637;46020;-71
2021/10/07 03:57:55;;;;;;;;;17.00;15.25;;;;;16.55;61.79;101296.81;146604;615;46016;-69
2021/10/07 04:00:29;;;;;;;;;19.25;17.50;;;;;16.50;61.82;101306.22;146604;604;47010;-75
2021/10/07 04:03:07;;;;;;;;;19.25;19.25;;;;;16.45;61.92;101294.72;146604;654;46029;-71
2021/10/07 04:05:41;;;;;;;;;19.50;17.75;;;;;16.40;61.55;101297.13;146605;627;46008;-72
2021/10/07 04:08:14;;;;;;;;;16.50;16.25;;;;;16.38;61.30;101290.94;146602;602;46017;-73
2021/10/07 04:10:50;;;;;;;;;18.75;17.25;;;;;16.40;60.99;101286.66;146607;595;46008;-72
2021/10/07 04:13:26;;;;;;;;;23.00;17.50;;;;;16.45;61.72;101288.56;146605;594;46016;-72
2021/10/07 04:16:00;;;;;;;;;19.00;17.75;;;;;16.45;61.50;101294.72;146603;610;46910;-70
2021/10/07 04:18:34;;;;;;;;;20.25;17.00;;;;;16.47;61.17;101299.97;146603;600;47010;-70
2021/10/07 04:21:08;;;;;;;;;23.00;19.75;;;;;16.50;60.76;101303.59;146606;599;46020;-71
2021/10/07 04:23:42;;;;;;;;;18.00;18.00;;;;;16.55;61.46;101302.03;146603;563;46016;-72
2021/10/07 04:26:16;;;;;;;;;18.25;16.25;;;;;16.62;60.93;101304.03;146603;640;46008;-72
2021/10/07 04:28:50;;;;;;;;;18.50;16.50;;;;;16.68;61.00;101299.88;146603;583;47010;-70
2021/10/07 04:31:24;;;;;;;;;13.50;13.00;;;;;16.70;61.16;101291.25;146607;586;46008;-76
2021/10/07 04:33:58;;;;;;;;;20.50;17.25;;;;;16.75;60.91;101287.06;146604;650;46016;-73
2021/10/07 04:36:32;;;;;;;;;21.75;18.75;;;;;16.76;61.26;101286.25;146605;689;46021;-74
2021/10/07 04:39:07;;;;;;;;;17.50;16.75;;;;;16.74;60.67;101282.62;146602;706;47020;-73
2021/10/07 04:41:41;;;;;;;;;16.75;15.00;;;;;16.73;60.04;101293.97;146605;571;46910;-74
2021/10/07 04:44:15;;;;;;;;;19.25;17.75;;;;;16.75;60.62;101288.75;146605;603;46010;-73
2021/10/07 04:46:49;;;;;;;;;23.25;19.75;;;;;16.78;60.53;101294.16;146604;609;46910;-74
2021/10/07 04:49:24;;;;;;;;;19.00;17.25;;;;;16.81;61.14;101289.00;146602;656;47018;-74
2021/10/07 04:51:58;;;;;;;;;19.50;16.75;;;;;16.83;60.91;101293.47;146607;664;45023;-72
2021/10/07 04:54:31;;;;;;;;;20.00;18.50;;;;;16.85;60.65;101297.03;146601;610;46016;-73
2021/10/07 04:57:05;;;;;;;;;22.25;19.75;;;;;16.88;60.51;101301.47;146607;704;46008;-74
2021/10/07 04:59:39;;;;;;;;;25.00;18.25;;;;;16.93;61.13;101293.78;146604;608;46017;-72
2021/10/07 05:02:13;;;;;;;;;19.25;18.00;;;;;16.95;60.28;101302.59;146606;574;46020;-75
2021/10/07 05:04:48;;;;;;;;;19.75;18.75;;;;;16.98;60.16;101307.94;146603;620;46017;-82
2021/10/07 05:07:25;;;;;;;;;18.50;17.50;;;;;17.00;60.42;101312.38;146607;577;46010;-73
2021/10/07 05:09:59;;;;;;;;;17.50;15.75;;;;;17.02;60.84;101310.72;146606;564;46029;-71
2021/10/07 05:12:33;;;;;;;;;21.00;17.75;;;;;17.03;60.39;101312.47;146605;576;46021;-79
2021/10/07 05:15:07;;;;;;;;;16.25;15.00;;;;;17.05;60.97;101310.81;146605;622;46031;-79
2021/10/07 05:17:41;;;;;;;;;18.00;17.75;;;;;17.05;60.83;101307.31;146606;573;46008;-78
2021/10/07 05:20:15;;;;;;;;;15.00;14.00;;;;;17.04;60.86;101303.81;146602;655;46017;-79
2021/10/07 05:22:50;;;;;;;;;16.25;14.50;;;;;17.06;61.41;101302.09;146608;649;45021;-80
2021/10/07 05:25:24;;;;;;;;;15.00;13.25;;;;;17.06;61.69;101301.22;146607;575;45020;-79
2021/10/07 05:27:58;;;;;;;;;17.75;15.75;;;;;17.07;61.97;101298.66;146606;762;47008;-81
2021/10/07 05:30:32;;;;;;;;;12.00;10.25;;;;;17.12;64.17;101300.53;146601;600;45903;-79
2021/10/07 05:33:06;;;;;;;;;13.25;10.50;;;;;17.19;63.68;101305.16;146602;571;47010;-77
2021/10/07 05:35:40;;;;;;;;;15.50;13.25;;;;;17.26;62.27;101302.81;146601;671;46017;-78
2021/10/07 05:38:14;;;;;;;;;9.75;8.00;;;;;17.31;63.28;101297.69;146606;640;46020;-81
2021/10/07 05:40:48;;;;;;;;;5.00;4.33;;;;;17.34;64.35;101297.78;146605;670;46016;-86
2021/10/07 05:43:22;;;;;;;;;8.75;5.50;;;;;17.38;63.72;101299.66;146607;564;46021;-86
2021/10/07 05:45:56;;;;;;;;;9.75;9.50;;;;;17.44;63.08;101305.09;146603;707;46016;-84
2021/10/07 05:48:31;;;;;;;;;23.00;17.50;;;;;17.49;62.33;101302.66;146602;627;46020;-85
2021/10/07 05:51:05;;;;;;;;;16.50;11.50;;;;;17.52;62.97;101300.12;146604;615;46010;-85
2021/10/07 05:53:39;;;;;;;;;9.00;7.25;;;;;17.57;63.01;101300.25;146603;668;46020;-84
2021/10/07 05:56:13;;;;;;;;;11.75;8.50;;;;;17.58;62.70;101295.09;146604;570;46016;-85
2021/10/07 05:58:47;;;;;;;;;10.25;8.50;;;;;17.61;63.13;101303.03;146607;649;46008;-86
2021/10/07 06:01:21;;;;;;;;;9.75;8.50;;;;;17.65;62.79;101306.66;146603;629;46016;-85
2021/10/07 06:03:55;;;;;;;;;15.75;15.00;;;;;17.67;61.82;101303.25;146607;600;46010;-83
2021/10/07 06:06:29;;;;;;;;;9.25;9.25;;;;;17.70;60.93;101313.84;146604;586;46016;-82
2021/10/07 06:09:03;;;;;;;;;28.75;21.75;;;;;17.71;60.17;101309.47;146606;620;46020;-81
2021/10/07 06:11:41;;;;;;;;;25.75;22.25;;;;;17.72;60.70;101306.00;146603;611;46016;-82
2021/10/07 06:14:15;;;;;;;;;20.75;19.25;;;;;17.74;60.54;101312.19;146607;594;46021;-82
2021/10/07 06:16:50;;;;;;;;;20.25;17.75;;;;;17.73;59.93;101307.78;146604;617;46029;-83
2021/10/07 06:19:30;;;;;;;;;21.25;18.75;;;;;17.74;59.62;101305.22;146605;589;47008;-82
2021/10/07 06:22:04;;;;;;;;;25.00;20.25;;;;;17.74;59.33;101309.56;146603;645;46016;-83
2021/10/07 06:24:38;;;;;;;;;24.75;20.50;;;;;17.71;59.68;101310.34;146606;587;46008;-83
2021/10/07 06:27:12;;;;;;;;;23.75;20.25;;;;;17.70;59.26;101303.34;146604;578;46017;-82
2021/10/07 06:29:46;;;;;;;;;27.00;20.50;;;;;17.68;59.85;101307.63;146607;699;46008;-83
2021/10/07 06:32:20;;;;;;;;;16.75;15.50;;;;;17.64;59.87;101312.75;146602;569;46016;-82
2021/10/07 06:34:54;;;;;;;;;19.50;19.00;;;;;17.60;60.20;101311.75;146606;580;46021;-83
2021/10/07 06:37:28;;;;;;;;;19.25;18.50;;;;;17.55;59.89;101311.59;146605;628;45020;-83
2021/10/07 06:40:02;;;;;;;;;20.00;17.75;;;;;17.54;59.96;101319.44;146606;627;47008;-84
2021/10/07 06:42:36;;;;;;;;;21.50;19.25;;;;;17.53;60.05;101320.25;146604;564;46017;-81
2021/10/07 06:45:11;;;;;;;;;18.00;17.00;;;;;17.58;60.78;101317.78;146605;626;46008;-82
2021/10/07 06:47:45;;;;;;;;;19.75;18.75;;;;;17.55;60.35;101306.34;146603;664;46016;-84
2021/10/07 06:50:20;;;;;;;;;20.50;17.50;;;;;17.60;59.54;101306.53;146607;695;46021;-83
2021/10/07 06:52:54;;;;;;;;;19.75;16.00;;;;;17.61;59.32;101307.41;146604;612;46010;-84
2021/10/07 06:55:28;;;;;;;;;16.50;14.00;;;;;17.61;60.20;101307.41;146604;588;46020;-82
2021/10/07 06:58:02;;;;;;;;;13.75;13.00;;;;;17.63;59.84;101311.87;146604;668;46017;-82
2021/10/07 07:00:37;;;;;;;;;13.25;12.00;;;;;17.65;61.02;101306.66;146608;633;46020;-84
2021/10/07 07:03:11;;;;;;;;;18.50;15.25;;;;;17.71;60.39;101309.47;146606;692;46020;-82
2021/10/07 07:05:45;;;;;;;;;15.25;15.00;;;;;17.75;61.07;101313.97;146605;574;46020;-83
2021/10/07 07:08:19;;;;;;;;;14.50;12.75;;;;;17.77;60.89;101312.31;146605;621;46010;-81
2021/10/07 07:10:54;;;;;;;;;15.50;15.50;;;;;17.80;61.28;101311.53;146604;605;46910;-82
2021/10/07 07:13:32;;;;;;;;;13.75;12.50;;;;;17.84;61.22;101305.53;146601;592;47019;-86
2021/10/07 07:16:09;;;;;;;;;19.75;14.00;;;;;17.85;60.00;101304.66;146602;602;47008;-82
2021/10/07 07:18:43;;;;;;;;;14.25;12.75;;;;;17.84;60.06;101293.28;146602;577;46017;-83
2021/10/07 07:21:19;;;;;;;;;16.50;16.50;;;;;17.87;60.63;101300.38;146608;569;46020;-83
2021/10/07 07:23:54;;;;;;;;;17.75;16.50;;;;;17.89;61.39;101301.31;146602;655;47016;-83
2021/10/07 07:26:28;;;;;;;;;18.75;14.50;;;;;17.92;60.71;101296.16;146606;603;46022;-84
2021/10/07 07:29:02;;;;;;;;;12.75;12.25;;;;;17.94;60.70;101300.63;146603;612;46016;-83
2021/10/07 07:31:36;;;;;;;;;16.25;14.50;;;;;17.97;60.44;101287.59;146600;591;47010;-82
2021/10/07 07:34:10;;;;;;;;;16.00;15.00;;;;;17.99;61.12;101280.66;146601;612;46017;-82
2021/10/07 07:36:44;;;;;;;;;14.25;13.00;;;;;18.03;60.95;101281.63;146607;599;46010;-83
2021/10/07 07:39:18;;;;;;;;;14.00;12.00;;;;;18.07;59.77;101277.34;146603;610;46016;-84
2021/10/07 07:41:52;;;;;;;;;14.75;12.25;;;;;18.11;60.04;101271.37;146601;648;46021;-83
2021/10/07 07:44:26;;;;;;;;;17.25;13.50;;;;;18.11;60.12;101269.62;146606;563;46016;-84
2021/10/07 07:47:01;;;;;;;;;20.50;18.25;;;;;18.16;59.75;101265.41;146606;608;46010;-83
2021/10/07 07:49:35;;;;;;;;;18.00;17.50;;;;;18.17;59.95;101258.41;146603;582;46017;-84
2021/10/07 07:52:09;;;;;;;;;23.50;20.75;;;;;18.18;60.22;101266.31;146606;655;46020;-83
2021/10/07 07:54:43;;;;;;;;;23.00;21.25;;;;;18.20;60.57;101261.13;146603;669;46016;-82
2021/10/07 07:57:17;;;;;;;;;25.75;23.75;;;;;17.33;60.37;101096.81;146605;581;46020;-83
2021/10/07 07:59:51;;;;;;;;;22.75;21.50;;;;;18.26;59.79;101250.81;146602;593;47010;-83
2021/10/07 08:02:25;;;;;;;;;29.50;26.50;;;;;18.25;59.46;101246.38;146604;581;46020;-82
2021/10/07 08:04:59;;;;;;;;;28.00;23.75;;;;;18.29;59.92;101242.12;146605;602;46010;-84
2021/10/07 08:07:33;;;;;;;;;24.75;20.50;;;;;18.29;60.48;101248.28;146605;571;46008;-83
2021/10/07 08:10:07;;;;;;;;;25.25;22.75;;;;;18.29;60.18;101245.66;146604;595;46017;-83
2021/10/07 08:12:42;;;;;;;;;17.00;13.75;;;;;18.32;60.71;101244.84;146605;611;47008;-83
2021/10/07 08:15:16;;;;;;;;;17.75;15.00;;;;;18.35;60.29;101248.44;146606;571;46908;-83
2021/10/07 08:17:50;;;;;;;;;14.75;14.50;;;;;18.41;60.05;101232.88;146606;628;46021;-82
2021/10/07 08:20:25;;;;;;;;;15.50;14.75;;;;;18.47;59.30;101229.50;146604;563;47010;-83
2021/10/07 08:22:59;;;;;;;;;16.75;14.75;;;;;18.55;59.99;101227.09;146604;571;46020;-82
2021/10/07 08:25:33;;;;;;;;;16.50;14.50;;;;;18.59;59.52;101215.81;146604;603;46011;-82
2021/10/07 08:28:14;;;;;;;;;18.50;18.00;;;;;18.63;59.78;101221.19;146608;573;46010;-82
2021/10/07 08:30:48;;;;;;;;;19.00;16.25;;;;;18.65;59.50;101229.09;146602;613;48016;-82
2021/10/07 08:33:22;;;;;;;;;22.75;19.50;;;;;18.71;59.75;101237.13;146602;604;47009;-82
2021/10/07 08:35:56;;;;;;;;;18.50;14.50;;;;;18.79;58.79;101240.91;146604;608;46016;-82
2021/10/07 08:38:32;;;;;;;;;17.75;15.75;;;;;18.87;59.16;101241.09;146605;583;46020;-83
2021/10/07 08:41:06;;;;;;;;;13.75;13.75;;;;;18.93;58.82;101236.00;146602;606;46017;-82
2021/10/07 08:43:40;;;;;;;;;13.00;12.75;;;;;18.99;58.75;101232.63;146608;593;46008;-84
2021/10/07 08:46:15;;;;;;;;;14.00;12.25;;;;;19.05;57.87;101235.41;146604;563;46019;-83
2021/10/07 08:48:51;;;;;;;;;12.00;11.75;;;;;19.09;57.97;101243.41;146605;645;46008;-82
2021/10/07 08:51:34;;;;;;;;;12.50;12.25;;;;;19.14;57.75;101246.16;146603;649;46908;-84
2021/10/07 08:54:09;;;;;;;;;13.25;10.75;;;;;19.15;57.30;101253.19;146605;636;46024;-83
2021/10/07 08:56:45;;;;;;;;;15.00;12.50;;;;;19.12;57.66;101237.31;146604;613;46016;-83
2021/10/07 08:59:19;;;;;;;;;11.25;9.25;;;;;17.41;58.11;100945.87;146608;688;46008;-82
2021/10/07 09:02:06;;;;;;;;;5.75;3.75;;;;;19.07;57.40;101246.87;146604;675;46031;-84
2021/10/07 09:04:44;;;;;;;;;6.67;4.67;;;;;19.06;58.11;101243.31;146609;603;46023;-84
2021/10/07 09:07:18;;;;;;;;;10.75;10.00;;;;;19.07;58.06;101231.09;146605;706;46010;-74
2021/10/07 09:10:02;;;;;;;;;7.50;6.50;;;;;19.16;58.32;101239.19;146609;570;46021;-72
2021/10/07 09:12:37;;;;;;;;;4.00;3.00;;;;;19.24;56.49;101229.75;146607;591;46016;-71
2021/10/07 09:15:17;;;;;;;;;3.67;3.67;;;;;19.33;56.40;101219.44;146608;580;46908;-73
2021/10/07 09:17:55;;;;;;;;;7.00;5.00;;;;;19.47;56.93;101232.00;146606;564;46017;-75
2021/10/07 09:20:57;;;;;;;;;8.50;7.50;;;;;18.52;56.71;101035.31;146609;601;46008;-74
2021/10/07 09:23:37;;;;;;;;;2.33;2.33;;;;;19.70;54.71;101224.69;146606;630;46016;-77
2021/10/07 09:26:17;;;;;;;;;5.00;3.00;;;;;19.73;55.42;101220.37;146606;602;46029;-75
2021/10/07 09:29:03;;;;;;;;;4.33;2.00;;;;;19.58;54.71;101213.00;146607;607;46010;-75
2021/10/07 09:31:38;;;;;;;;;2.67;2.67;;;;;19.61;54.48;101241.13;146609;564;45021;-75
2021/10/07 09:34:12;;;;;;;;;2.67;2.00;;;;;19.58;55.25;101239.31;146607;566;46031;-76
2021/10/07 09:36:47;;;;;;;;;2.00;2.00;;;;;19.61;55.41;101249.91;146608;658;45022;-76
2021/10/07 09:39:24;;;;;;;;;3.00;1.33;;;;;19.56;55.00;101253.28;146606;589;46018;-77
2021/10/07 09:42:08;;;;;;;;;2.33;1.33;;;;;19.47;54.47;101253.06;146610;571;46010;-76
2021/10/07 09:44:42;;;;;;;;;4.00;3.00;;;;;19.38;55.06;101241.50;146606;570;46029;-75
2021/10/07 09:47:30;;;;;;;;;2.33;1.67;;;;;19.40;55.40;101228.34;146610;608;46021;-74
2021/10/07 09:50:29;;;;;;;;;1.67;1.67;;;;;19.49;55.27;101227.69;146604;636;48020;-76
2021/10/07 09:53:16;;;;;;;;;5.33;2.00;;;;;19.52;54.44;101219.87;146607;569;46020;-74
2021/10/07 09:55:51;;;;;;;;;4.00;3.00;;;;;19.54;54.86;101220.81;146604;571;46016;-77
2021/10/07 09:58:28;;;;;;;;;2.00;2.00;;;;;19.55;55.33;101214.69;146612;699;45022;-76
2021/10/07 10:01:02;;;;;;;;;3.00;3.00;;;;;19.57;55.23;101215.63;146603;618;46016;-76
2021/10/07 10:03:40;;;;;;;;;5.00;1.33;;;;;19.58;54.70;101213.00;146608;572;46021;-75
2021/10/07 10:06:14;;;;;;;;;3.00;2.00;;;;;19.60;53.98;101207.78;146605;631;46016;-75
2021/10/07 10:08:49;;;;;;;;;3.00;2.00;;;;;19.59;54.95;101233.22;146607;567;46908;-73
2021/10/07 10:11:23;;;;;;;;;3.33;3.00;;;;;19.54;55.60;101234.84;146609;604;46010;-76
2021/10/07 10:13:57;;;;;;;;;2.67;2.67;;;;;19.50;55.93;101221.56;146608;690;46010;-73
2021/10/07 10:16:33;;;;;;;;;4.00;3.00;;;;;19.46;55.20;101222.34;146608;604;46016;-75
2021/10/07 10:19:10;;;;;;;;;2.67;2.67;;;;;19.45;55.78;101223.22;146607;586;46010;-75
2021/10/07 10:21:45;;;;;;;;;1.67;1.67;;;;;19.43;56.28;101223.16;146606;587;47910;-73
2021/10/07 10:24:20;;;;;;;;;3.00;2.00;;;;;19.39;55.67;101223.97;146605;669;46021;-74
2021/10/07 10:27:06;;;;;;;;;2.33;1.33;;;;;19.44;55.99;101218.78;146606;586;46016;-75
2021/10/07 10:29:40;;;;;;;;;3.00;2.00;;;;;19.42;56.41;101220.53;146608;595;46020;-75
2021/10/07 10:32:14;;;;;;;;;4.00;3.67;;;;;19.41;56.19;101216.09;146606;569;46017;-75
2021/10/07 10:34:50;;;;;;;;;2.67;1.67;;;;;19.36;56.06;101219.50;146608;589;47010;-78
2021/10/07 10:37:24;;;;;;;;;3.33;3.00;;;;;19.38;56.20;101209.94;146604;563;46016;-77
2021/10/07 10:40:13;;;;;;;;;3.00;1.67;;;;;19.35;56.05;101185.31;146608;566;46021;-79
2021/10/07 10:42:47;;;;;;;;;3.00;1.67;;;;;19.46;56.03;101183.78;146606;586;47909;-75
2021/10/07 10:45:21;;;;;;;;;3.00;2.00;;;;;19.57;56.69;101184.03;146610;628;45022;-75
2021/10/07 10:47:55;;;;;;;;;4.33;3.00;;;;;19.67;56.40;101169.37;146606;675;46016;-75
2021/10/07 10:50:31;;;;;;;;;4.00;3.00;;;;;19.70;55.62;101158.91;146611;594;46020;-76
2021/10/07 10:53:06;;;;;;;;;2.33;2.33;;;;;19.71;55.62;101160.69;146604;611;46016;-75
2021/10/07 10:55:49;;;;;;;;;1.33;1.00;;;;;19.71;55.84;101171.22;146607;564;46025;-77
2021/10/07 10:58:23;;;;;;;;;4.33;2.00;;;;;19.64;55.89;101166.66;146607;654;46016;-76
2021/10/07 11:00:58;;;;;;;;;2.67;2.33;;;;;19.55;55.80;101162.06;146609;660;46008;-75
2021/10/07 11:03:33;;;;;;;;;3.00;2.00;;;;;19.52;55.92;101156.75;146605;630;46010;-75
2021/10/07 11:06:10;;;;;;;;;3.33;3.00;;;;;19.47;56.26;101163.63;146608;584;46020;-76
2021/10/07 11:09:01;;;;;;;;;4.00;4.00;;;;;19.44;55.45;101169.75;146608;590;46010;-77
2021/10/07 11:11:37;;;;;;;;;2.67;1.33;;;;;19.45;56.12;101168.87;146605;583;46020;-75
2021/10/07 11:14:13;;;;;;;;;3.00;2.00;;;;;19.45;55.72;101182.03;146604;575;46016;-76
2021/10/07 11:16:50;;;;;;;;;5.00;4.00;;;;;19.44;55.96;101167.12;146608;592;46009;-74
2021/10/07 11:19:24;;;;;;;;;3.00;2.00;;;;;19.41;55.63;101182.81;146605;586;46016;-76
2021/10/07 11:22:12;;;;;;;;;3.33;3.00;;;;;19.33;55.38;101181.75;146606;614;46028;-76
2021/10/07 11:24:58;;;;;;;;;3.00;2.67;;;;;19.22;55.68;101176.25;146605;581;47910;-76
2021/10/07 11:27:41;;;;;;;;;1.00;1.00;;;;;19.18;56.23;101166.50;146608;627;47010;-76
2021/10/07 11:30:16;;;;;;;;;3.67;2.00;;;;;19.18;56.44;101161.25;146605;579;46017;-76
2021/10/07 11:32:50;;;;;;;;;3.00;3.00;;;;;19.21;55.96;101161.31;146610;581;46021;-75
2021/10/07 11:35:25;;;;;;;;;4.50;3.00;;;;;19.23;55.96;101167.50;146603;618;46016;-74
2021/10/07 11:38:03;;;;;;;;;3.00;2.00;;;;;19.27;55.44;101152.69;146607;612;47008;-75
2021/10/07 11:40:52;;;;;;;;;4.00;3.00;;;;;19.32;55.39;101132.66;146605;579;47010;-76
2021/10/07 11:43:32;;;;;;;;;2.33;2.33;;;;;18.53;54.67;100995.06;146608;609;46908;-74
2021/10/07 11:46:12;;;;;;;;;3.00;1.67;;;;;19.42;54.19;101144.25;146606;574;46017;-76
2021/10/07 11:48:59;;;;;;;;;2.33;1.00;;;;;19.46;53.94;101130.31;146606;584;46010;-75
2021/10/07 11:51:35;;;;;;;;;1.67;1.33;;;;;19.49;53.76;101135.63;146604;616;46026;-76